El-djazair II — 7TBR — position and weather

sailwx.info

Track history (hours):
 
Tides and Currents Weather Stations Pressure Air Temp Water Temp Dewpoint Dewpoint Depression Visibility Wind Speed Wind Dir Waves Ship Positions

El-djazair II

Last reported at 2014-Aug-28 22:31 UTC. Time now 2014-Aug-28 23:21 UTC.
Position N 41°56' E 003°59'.

Length 146 m; draft 6.3 m.

Type: Passenger vessel. MMSI: 605026190.

Date/timePositionNaut miles runAvg speedWind from/ knotsBaromVisibWave heightAir tempDewpointWater temp
2014-Aug-28 22:31N 41°56' E 003°59'2323.8
2014-Aug-28 21:32N 42°15' E 004°18'2323.2
2014-Aug-28 20:33N 42°33' E 004°37'2424.1
2014-Aug-28 19:33N 42°52' E 004°56'2423.6
2014-Aug-28 18:33N 43°11' E 005°15'8 7.7
2014-Aug-28 17:29N 43°18' E 005°22'1 1.0
2014-Aug-28 16:33N 43°18' E 005°21'2121.3
2014-Aug-28 15:33N 43°01' E 005°03'7624.1
2014-Aug-28 12:25N 42°00' E 004°02'2322.0
2014-Aug-28 11:23N 41°42' E 003°43'2022.9
2014-Aug-28 10:32N 41°26' E 003°27'2222.9
2014-Aug-28 09:33N 41°09' E 003°09'2323.3
2014-Aug-28 08:34N 40°50' E 002°51'2323.1
2014-Aug-28 07:33N 40°31' E 002°33'2323.0
2014-Aug-28 06:33N 40°13' E 002°14'2423.5
2014-Aug-28 05:33N 39°54' E 001°56'2323.3
2014-Aug-28 04:33N 39°36' E 001°38'4723.5
2014-Aug-28 02:33N 38°58' E 001°01'2323.1
2014-Aug-28 01:33N 38°37' E 000°50'2323.0
2014-Aug-28 00:33N 38°15' E 000°39'2323.0
2014-Aug-27 23:32N 37°54' E 000°28'2323.6
2014-Aug-27 22:33N 37°32' E 000°17'2423.7
2014-Aug-27 21:33N 37°10' E 000°06'2424.2
2014-Aug-27 20:33N 36°48' W 000°05'2423.8
2014-Aug-27 19:33N 36°26' W 000°16'2524.6
2014-Aug-27 18:31N 36°02' W 000°28'22 1.9
2014-Aug-27 07:10N 35°43' W 000°39'0 0.0
2014-Aug-27 06:22N 35°43' W 000°39'0 0.0
2014-Aug-27 05:31N 35°43' W 000°39'1111.1
2014-Aug-27 04:33N 35°53' W 000°41'1413.6
2014-Aug-27 03:33N 36°07' W 000°38'1515.4
2014-Aug-27 02:33N 36°20' W 000°29'1919.2
2014-Aug-27 01:33N 36°39' W 000°24'1919.1
2014-Aug-27 00:34N 36°58' W 000°21'1919.4
2014-Aug-26 23:33N 37°17' W 000°17'2019.7
2014-Aug-26 22:33N 37°36' W 000°13'2019.9
2014-Aug-26 21:33N 37°56' W 000°08'1717.2
2014-Aug-26 20:33N 38°12' W 000°15'14 1.7
2014-Aug-26 12:18N 38°20' W 000°30'3 0.9
2014-Aug-26 09:09N 38°18' W 000°27'1422.8
2014-Aug-26 08:33N 38°11' W 000°12'2323.3
2014-Aug-26 07:33N 38°01' E 000°14'2323.2
2014-Aug-26 06:33N 37°50' E 000°41'2323.4
2014-Aug-26 05:33N 37°40' E 001°07'2423.1
2014-Aug-26 04:32N 37°28' E 001°33'2323.2
2014-Aug-26 03:33N 37°18' E 001°59'2823.3
2014-Aug-26 02:22N 37°06' E 002°30'1922.7
2014-Aug-26 01:33N 36°57' E 002°50'7 1.1
2014-Aug-25 19:33N 36°54' E 002°58'2323.2
2014-Aug-25 18:33N 37°05' E 002°32'2422.9
2014-Aug-25 17:30N 37°16' E 002°05'2122.9
2014-Aug-25 16:33N 37°25' E 001°41'2323.1
2014-Aug-25 15:33N 37°36' E 001°15'2323.1
2014-Aug-25 14:33N 37°46' E 000°49'2323.2
2014-Aug-25 13:33N 37°57' E 000°23'2322.9
2014-Aug-25 12:33N 38°07' W 000°03'2322.8
2014-Aug-25 11:33N 38°18' W 000°28'15 2.0
2014-Aug-25 04:11N 38°12' W 000°12'8918.1
2014-Aug-24 23:14N 36°43' W 000°26'174 7.6
2014-Aug-24 00:17N 39°16' E 001°19'1923.4
2014-Aug-23 23:28N 39°31' E 001°34'2123.3
2014-Aug-23 22:33N 39°48' E 001°51'2423.7
2014-Aug-23 21:33N 40°07' E 002°09'2424.1
2014-Aug-23 20:33N 40°26' E 002°29'2423.9
2014-Aug-23 19:33N 40°45' E 002°48'19111.8
2014-Aug-23 03:24N 43°18' E 005°22'0 0.0
2014-Aug-23 02:33N 43°18' E 005°22'0 0.0
2014-Aug-23 01:27N 43°18' E 005°22'0 0.0
2014-Aug-23 00:09N 43°18' E 005°22'0 0.0
2014-Aug-22 23:30N 43°18' E 005°22'0 0.0
2014-Aug-22 22:24N 43°18' E 005°22'0 0.0
2014-Aug-22 21:06N 43°18' E 005°22'0 0.0
2014-Aug-22 20:30N 43°18' E 005°22'0 0.0
2014-Aug-22 19:18N 43°18' E 005°22'0 0.0
2014-Aug-22 18:33N 43°18' E 005°22'0 0.0
2014-Aug-22 17:33N 43°18' E 005°22'0 0.0
2014-Aug-22 16:24N 43°18' E 005°22'0 0.0
2014-Aug-22 15:30N 43°18' E 005°22'0 0.0
2014-Aug-22 14:24N 43°18' E 005°22'0 0.0
2014-Aug-22 13:24N 43°18' E 005°22'0 0.0
2014-Aug-22 12:12N 43°18' E 005°22'0 0.0
2014-Aug-22 11:15N 43°18' E 005°22'4 5.1
2014-Aug-22 10:33N 43°16' E 005°19'2423.2
2014-Aug-22 09:32N 42°52' E 005°25'2323.5
2014-Aug-22 08:33N 42°29' E 005°31'2323.3
2014-Aug-22 07:33N 42°07' E 005°36'2323.4
2014-Aug-22 06:33N 41°44' E 005°42'2723.6
2014-Aug-22 05:24N 41°17' E 005°49'128 5.4
2014-Aug-21 05:31N 39°39' E 007°38'2524.8
2014-Aug-21 04:31N 40°03' E 007°44'16723.1
2014-Aug-20 21:16N 42°47' E 008°31'2122.2
2014-Aug-20 20:19N 43°07' E 008°37'1722.1
2014-Aug-20 19:33N 43°24' E 008°42'2322.8
2014-Aug-20 18:34N 43°46' E 008°48'2323.4
2014-Aug-20 17:34N 44°09' E 008°54'1615.5
2014-Aug-20 16:33N 44°25' E 008°55'0 0.0
2014-Aug-20 15:12N 44°25' E 008°55'0 0.0
2014-Aug-20 14:24N 44°25' E 008°55'0 0.0
2014-Aug-20 13:32N 44°25' E 008°55'6 6.4
2014-Aug-20 12:33N 44°19' E 008°59'2322.8
2014-Aug-20 11:34N 43°57' E 008°50'2323.4
2014-Aug-20 10:34N 43°34' E 008°42'2423.8
2014-Aug-20 09:33N 43°11' E 008°36'2423.8
2014-Aug-20 08:33N 42°48' E 008°29'2424.1
2014-Aug-20 07:33N 42°24' E 008°22'2423.8
2014-Aug-20 06:33N 42°01' E 008°16'2423.8
2014-Aug-20 05:34N 41°38' E 008°10'2423.6
2014-Aug-20 04:33N 41°14' E 008°04'2423.6
2014-Aug-20 03:31N 40°50' E 007°57'2323.4
2014-Aug-20 02:33N 40°28' E 007°52'2323.2
2014-Aug-20 01:33N 40°05' E 007°45'2423.1
2014-Aug-20 00:30N 39°42' E 007°38'4523.2
2014-Aug-19 22:33N 38°58' E 007°25'11923.4
2014-Aug-19 17:29N 37°01' E 006°55'21212.5
2014-Aug-19 00:32N 40°29' E 006°01'2824.1
2014-Aug-18 23:22N 40°57' E 005°54'  
Track history (hours):
 
Tides and Currents Weather Stations Pressure Air Temp Water Temp Dewpoint Dewpoint Depression Visibility Wind Speed Wind Dir Waves Ship Positions

El-djazair II

Last reported at 2014-Aug-28 22:31 UTC. Time now 2014-Aug-28 23:21 UTC.
Position N 41°56' E 003°59'.

Length 146 m; draft 6.3 m.

Type: Passenger vessel. MMSI: 605026190.

Date/timePositionNaut miles runAvg speedWind from/ knotsBaromVisibWave heightAir tempDewpointWater temp
2014-Aug-28 22:31N 41°56' E 003°59'2323.8
2014-Aug-28 21:32N 42°15' E 004°18'2323.2
2014-Aug-28 20:33N 42°33' E 004°37'2424.1
2014-Aug-28 19:33N 42°52' E 004°56'2423.6
2014-Aug-28 18:33N 43°11' E 005°15'8 7.7
2014-Aug-28 17:29N 43°18' E 005°22'1 1.0
2014-Aug-28 16:33N 43°18' E 005°21'2121.3
2014-Aug-28 15:33N 43°01' E 005°03'7624.1
2014-Aug-28 12:25N 42°00' E 004°02'2322.0
2014-Aug-28 11:23N 41°42' E 003°43'2022.9
2014-Aug-28 10:32N 41°26' E 003°27'2222.9
2014-Aug-28 09:33N 41°09' E 003°09'2323.3
2014-Aug-28 08:34N 40°50' E 002°51'2323.1
2014-Aug-28 07:33N 40°31' E 002°33'2323.0
2014-Aug-28 06:33N 40°13' E 002°14'2423.5
2014-Aug-28 05:33N 39°54' E 001°56'2323.3
2014-Aug-28 04:33N 39°36' E 001°38'4723.5
2014-Aug-28 02:33N 38°58' E 001°01'2323.1
2014-Aug-28 01:33N 38°37' E 000°50'2323.0
2014-Aug-28 00:33N 38°15' E 000°39'2323.0
2014-Aug-27 23:32N 37°54' E 000°28'2323.6
2014-Aug-27 22:33N 37°32' E 000°17'2423.7
2014-Aug-27 21:33N 37°10' E 000°06'2424.2
2014-Aug-27 20:33N 36°48' W 000°05'2423.8
2014-Aug-27 19:33N 36°26' W 000°16'2524.6
2014-Aug-27 18:31N 36°02' W 000°28'22 1.9
2014-Aug-27 07:10N 35°43' W 000°39'0 0.0
2014-Aug-27 06:22N 35°43' W 000°39'0 0.0
2014-Aug-27 05:31N 35°43' W 000°39'1111.1
2014-Aug-27 04:33N 35°53' W 000°41'1413.6
2014-Aug-27 03:33N 36°07' W 000°38'1515.4
2014-Aug-27 02:33N 36°20' W 000°29'1919.2
2014-Aug-27 01:33N 36°39' W 000°24'1919.1
2014-Aug-27 00:34N 36°58' W 000°21'1919.4
2014-Aug-26 23:33N 37°17' W 000°17'2019.7
2014-Aug-26 22:33N 37°36' W 000°13'2019.9
2014-Aug-26 21:33N 37°56' W 000°08'1717.2
2014-Aug-26 20:33N 38°12' W 000°15'14 1.7
2014-Aug-26 12:18N 38°20' W 000°30'3 0.9
2014-Aug-26 09:09N 38°18' W 000°27'1422.8
2014-Aug-26 08:33N 38°11' W 000°12'2323.3
2014-Aug-26 07:33N 38°01' E 000°14'2323.2
2014-Aug-26 06:33N 37°50' E 000°41'2323.4
2014-Aug-26 05:33N 37°40' E 001°07'2423.1
2014-Aug-26 04:32N 37°28' E 001°33'2323.2
2014-Aug-26 03:33N 37°18' E 001°59'2823.3
2014-Aug-26 02:22N 37°06' E 002°30'1922.7
2014-Aug-26 01:33N 36°57' E 002°50'7 1.1
2014-Aug-25 19:33N 36°54' E 002°58'2323.2
2014-Aug-25 18:33N 37°05' E 002°32'2422.9
2014-Aug-25 17:30N 37°16' E 002°05'2122.9
2014-Aug-25 16:33N 37°25' E 001°41'2323.1
2014-Aug-25 15:33N 37°36' E 001°15'2323.1
2014-Aug-25 14:33N 37°46' E 000°49'2323.2
2014-Aug-25 13:33N 37°57' E 000°23'2322.9
2014-Aug-25 12:33N 38°07' W 000°03'2322.8
2014-Aug-25 11:33N 38°18' W 000°28'15 2.0
2014-Aug-25 04:11N 38°12' W 000°12'8918.1
2014-Aug-24 23:14N 36°43' W 000°26'174 7.6
2014-Aug-24 00:17N 39°16' E 001°19'1923.4
2014-Aug-23 23:28N 39°31' E 001°34'2123.3
2014-Aug-23 22:33N 39°48' E 001°51'2423.7
2014-Aug-23 21:33N 40°07' E 002°09'2424.1
2014-Aug-23 20:33N 40°26' E 002°29'2423.9
2014-Aug-23 19:33N 40°45' E 002°48'19111.8
2014-Aug-23 03:24N 43°18' E 005°22'0 0.0
2014-Aug-23 02:33N 43°18' E 005°22'0 0.0
2014-Aug-23 01:27N 43°18' E 005°22'0 0.0
2014-Aug-23 00:09N 43°18' E 005°22'0 0.0
2014-Aug-22 23:30N 43°18' E 005°22'0 0.0
2014-Aug-22 22:24N 43°18' E 005°22'0 0.0
2014-Aug-22 21:06N 43°18' E 005°22'0 0.0
2014-Aug-22 20:30N 43°18' E 005°22'0 0.0
2014-Aug-22 19:18N 43°18' E 005°22'0 0.0
2014-Aug-22 18:33N 43°18' E 005°22'0 0.0
2014-Aug-22 17:33N 43°18' E 005°22'0 0.0
2014-Aug-22 16:24N 43°18' E 005°22'0 0.0
2014-Aug-22 15:30N 43°18' E 005°22'0 0.0
2014-Aug-22 14:24N 43°18' E 005°22'0 0.0
2014-Aug-22 13:24N 43°18' E 005°22'0 0.0
2014-Aug-22 12:12N 43°18' E 005°22'0 0.0
2014-Aug-22 11:15N 43°18' E 005°22'4 5.1
2014-Aug-22 10:33N 43°16' E 005°19'2423.2
2014-Aug-22 09:32N 42°52' E 005°25'2323.5
2014-Aug-22 08:33N 42°29' E 005°31'2323.3
2014-Aug-22 07:33N 42°07' E 005°36'2323.4
2014-Aug-22 06:33N 41°44' E 005°42'2723.6
2014-Aug-22 05:24N 41°17' E 005°49'128 5.4
2014-Aug-21 05:31N 39°39' E 007°38'2524.8
2014-Aug-21 04:31N 40°03' E 007°44'16723.1
2014-Aug-20 21:16N 42°47' E 008°31'2122.2
2014-Aug-20 20:19N 43°07' E 008°37'1722.1
2014-Aug-20 19:33N 43°24' E 008°42'2322.8
2014-Aug-20 18:34N 43°46' E 008°48'2323.4
2014-Aug-20 17:34N 44°09' E 008°54'1615.5
2014-Aug-20 16:33N 44°25' E 008°55'0 0.0
2014-Aug-20 15:12N 44°25' E 008°55'0 0.0
2014-Aug-20 14:24N 44°25' E 008°55'0 0.0
2014-Aug-20 13:32N 44°25' E 008°55'6 6.4
2014-Aug-20 12:33N 44°19' E 008°59'2322.8
2014-Aug-20 11:34N 43°57' E 008°50'2323.4
2014-Aug-20 10:34N 43°34' E 008°42'2423.8
2014-Aug-20 09:33N 43°11' E 008°36'2423.8
2014-Aug-20 08:33N 42°48' E 008°29'2424.1
2014-Aug-20 07:33N 42°24' E 008°22'2423.8
2014-Aug-20 06:33N 42°01' E 008°16'2423.8
2014-Aug-20 05:34N 41°38' E 008°10'2423.6
2014-Aug-20 04:33N 41°14' E 008°04'2423.6
2014-Aug-20 03:31N 40°50' E 007°57'2323.4
2014-Aug-20 02:33N 40°28' E 007°52'2323.2
2014-Aug-20 01:33N 40°05' E 007°45'2423.1
2014-Aug-20 00:30N 39°42' E 007°38'4523.2
2014-Aug-19 22:33N 38°58' E 007°25'11923.4
2014-Aug-19 17:29N 37°01' E 006°55'21212.5
2014-Aug-19 00:32N 40°29' E 006°01'2824.1
2014-Aug-18 23:22N 40°57' E 005°54'  

Dump ship's entire track history